Aviation Digital Data Service (ADDS)

Output produced by METARs form (0346 UTC 20 April 2014)
found at http://aviationweather.gov/adds/metars/
 
KFAY 200200Z 2002/2024 03011KT P6SM SCT012 OVC040 
     TEMPO 2003/2006 4SM -RA BR BKN012 
     FM200600 02012G22KT P6SM OVC015 
     FM202100 03012KT P6SM SCT040 BKN200